createdAt,value
2018-09-01T00:00:31.193Z,14.1
2018-09-01T00:01:32.319Z,14.1
2018-09-01T00:02:34.544Z,14.1
2018-09-01T00:03:35.720Z,14.1
2018-09-01T00:04:37.510Z,14.1
2018-09-01T00:05:38.641Z,14.1
2018-09-01T00:06:39.766Z,14.1
2018-09-01T00:07:41.242Z,14.1
2018-09-01T00:08:42.423Z,14.1
2018-09-01T00:09:43.584Z,14.1
2018-09-01T00:10:47.705Z,14.1
2018-09-01T00:11:48.823Z,14.1
2018-09-01T00:12:49.967Z,14.1
2018-09-01T00:13:51.087Z,14.1
2018-09-01T00:14:52.198Z,14
2018-09-01T00:15:53.408Z,14
2018-09-01T00:16:54.544Z,14
2018-09-01T00:17:55.701Z,14
2018-09-01T00:19:03.195Z,13.9
2018-09-01T00:20:04.415Z,13.9
2018-09-01T00:21:05.542Z,13.9
2018-09-01T00:22:06.693Z,14
2018-09-01T00:23:07.865Z,14
2018-09-01T00:24:09.020Z,13.9
2018-09-01T00:25:10.199Z,13.9
2018-09-01T00:26:11.328Z,13.9
2018-09-01T00:27:12.493Z,13.9
2018-09-01T00:28:13.689Z,13.9
2018-09-01T00:29:14.868Z,13.9
2018-09-01T00:30:15.975Z,13.8
2018-09-01T00:31:17.149Z,13.8
2018-09-01T00:32:18.293Z,13.7
2018-09-01T00:33:19.508Z,13.7
2018-09-01T00:34:20.623Z,13.8
2018-09-01T00:35:23.901Z,13.8
2018-09-01T00:36:25.021Z,13.9
2018-09-01T00:37:26.192Z,13.8
2018-09-01T00:38:27.294Z,13.8
2018-09-01T00:39:28.393Z,13.8
2018-09-01T00:40:29.510Z,13.8
2018-09-01T00:41:30.621Z,13.8
2018-09-01T00:42:31.731Z,13.7
2018-09-01T00:43:32.884Z,13.8
2018-09-01T00:44:34.003Z,13.8
2018-09-01T00:45:35.111Z,13.8
2018-09-01T00:46:38.729Z,13.8
2018-09-01T00:47:39.837Z,13.8
2018-09-01T00:48:41.051Z,13.8
2018-09-01T00:49:42.157Z,13.7
2018-09-01T00:50:43.311Z,13.7
2018-09-01T00:51:44.451Z,13.7
2018-09-01T00:52:45.599Z,13.5
2018-09-01T00:53:46.899Z,13.6
2018-09-01T00:54:48.027Z,13.6
2018-09-01T00:55:49.143Z,13.6
2018-09-01T00:56:50.253Z,13.7
2018-09-01T00:57:51.384Z,13.6
2018-09-01T00:58:53.007Z,13.6
2018-09-01T00:59:54.162Z,13.6
2018-09-01T01:00:55.346Z,13.5
2018-09-01T01:01:56.511Z,13.6
2018-09-01T01:02:57.624Z,13.5
2018-09-01T01:03:58.792Z,13.7
2018-09-01T01:04:59.968Z,13.6
2018-09-01T01:06:01.161Z,13.5
2018-09-01T01:07:02.280Z,13.6
2018-09-01T01:08:06.582Z,13.5
2018-09-01T01:09:08.180Z,13.6
2018-09-01T01:10:12.285Z,13.6
2018-09-01T01:11:16.258Z,13.6
2018-09-01T01:12:17.492Z,13.5
2018-09-01T01:13:18.817Z,13.4
2018-09-01T01:14:20.219Z,13.4
2018-09-01T01:15:21.351Z,13.4
2018-09-01T01:16:22.467Z,13.4
2018-09-01T01:17:23.559Z,13.4
2018-09-01T01:18:24.679Z,13.4
2018-09-01T01:19:31.295Z,13.5
2018-09-01T01:20:32.462Z,13.5
2018-09-01T01:21:33.610Z,13.4
2018-09-01T01:22:34.736Z,13.3
2018-09-01T01:23:35.883Z,13.2
2018-09-01T01:24:37.019Z,13.3
2018-09-01T01:25:38.151Z,13.4
2018-09-01T01:26:39.322Z,13.3
2018-09-01T01:27:40.452Z,13.4
2018-09-01T01:28:41.572Z,13.3
2018-09-01T01:29:42.737Z,13.2
2018-09-01T01:30:43.852Z,13.2
2018-09-01T01:31:44.999Z,13.3
2018-09-01T01:32:46.377Z,13.3
2018-09-01T01:33:47.764Z,13.3
2018-09-01T01:34:48.957Z,13.3
2018-09-01T01:35:50.063Z,13.4
2018-09-01T01:36:51.185Z,13.3
2018-09-01T01:37:52.389Z,13.3
2018-09-01T01:38:53.775Z,13.2
2018-09-01T01:39:54.959Z,13.1
2018-09-01T01:40:56.084Z,13.1
2018-09-01T01:41:57.192Z,13.1
2018-09-01T01:42:58.324Z,13.1
2018-09-01T01:43:59.452Z,13.2
2018-09-01T01:45:00.652Z,13.2
2018-09-01T01:46:01.866Z,13.1
2018-09-01T01:47:02.987Z,13.1
2018-09-01T01:48:04.123Z,13
2018-09-01T01:49:05.238Z,13.1
2018-09-01T01:50:06.407Z,13.1
2018-09-01T01:51:10.339Z,13.1
2018-09-01T01:52:11.483Z,13.1
2018-09-01T01:53:12.617Z,13
2018-09-01T01:54:13.751Z,13.1
2018-09-01T01:55:14.921Z,13.1
2018-09-01T01:56:16.243Z,13.1
2018-09-01T01:57:20.139Z,13
2018-09-01T01:58:21.235Z,13
2018-09-01T01:59:22.344Z,13
2018-09-01T02:00:23.496Z,13
2018-09-01T02:01:24.640Z,13
2018-09-01T02:02:25.736Z,13
2018-09-01T02:03:26.844Z,12.9
2018-09-01T02:04:27.991Z,12.9
2018-09-01T02:05:29.135Z,13
2018-09-01T02:06:32.675Z,12.9
2018-09-01T02:07:33.797Z,12.8
2018-09-01T02:08:34.894Z,12.8
2018-09-01T02:09:35.991Z,12.8
2018-09-01T02:10:37.592Z,12.8
2018-09-01T02:11:38.722Z,12.8
2018-09-01T02:12:39.858Z,12.8
2018-09-01T02:13:40.977Z,12.8
2018-09-01T02:14:42.079Z,12.7
2018-09-01T02:15:43.230Z,12.7
2018-09-01T02:16:44.358Z,12.7
2018-09-01T02:17:45.445Z,12.6
2018-09-01T02:18:46.561Z,12.8
2018-09-01T02:19:47.816Z,12.7
2018-09-01T02:20:49.024Z,12.6
2018-09-01T02:21:50.141Z,12.6
2018-09-01T02:22:51.297Z,12.6
2018-09-01T02:23:52.809Z,12.7
2018-09-01T02:24:53.975Z,12.6
2018-09-01T02:25:55.125Z,12.6
2018-09-01T02:26:56.251Z,12.7
2018-09-01T02:27:57.395Z,12.6
2018-09-01T02:28:58.507Z,12.7
2018-09-01T02:29:59.612Z,12.7
2018-09-01T02:31:00.766Z,12.7
2018-09-01T02:32:02.019Z,12.6
2018-09-01T02:33:03.376Z,12.6
2018-09-01T02:34:04.474Z,12.6
2018-09-01T02:35:05.579Z,12.7
2018-09-01T02:36:06.800Z,12.6
2018-09-01T02:37:07.928Z,12.6
2018-09-01T02:38:09.128Z,12.6
2018-09-01T02:39:10.266Z,12.6
2018-09-01T02:40:11.373Z,12.5
2018-09-01T02:41:12.824Z,12.6
2018-09-01T02:42:13.948Z,12.5
2018-09-01T02:43:15.076Z,12.5
2018-09-01T02:44:16.196Z,12.5
2018-09-01T02:45:17.324Z,12.4
2018-09-01T02:46:18.489Z,12.5
2018-09-01T02:47:19.601Z,12.5
2018-09-01T02:48:20.744Z,12.4
2018-09-01T02:49:21.839Z,12.5
2018-09-01T02:50:22.986Z,12.6
2018-09-01T02:51:24.167Z,12.6
2018-09-01T02:52:25.308Z,12.6
2018-09-01T02:53:26.493Z,12.5
2018-09-01T02:54:27.567Z,12.5
2018-09-01T02:55:28.694Z,12.4
2018-09-01T02:56:29.852Z,12.3
2018-09-01T02:57:30.964Z,12.3
2018-09-01T02:58:32.102Z,12.3
2018-09-01T02:59:33.212Z,12.4
2018-09-01T03:00:34.357Z,12.5
2018-09-01T03:01:35.806Z,12.4
2018-09-01T03:02:36.935Z,12.4
2018-09-01T03:03:38.059Z,12.3
2018-09-01T03:04:39.173Z,12.3
2018-09-01T03:05:40.344Z,12.2
2018-09-01T03:06:41.780Z,12.2
2018-09-01T03:07:42.892Z,12.3
2018-09-01T03:08:46.633Z,12.2
2018-09-01T03:09:48.057Z,12.5
2018-09-01T03:10:49.165Z,12.4
2018-09-01T03:11:50.412Z,12.4
2018-09-01T03:12:51.542Z,12.4
2018-09-01T03:13:52.651Z,12.4
2018-09-01T03:14:53.782Z,12.3
2018-09-01T03:15:54.908Z,12.3
2018-09-01T03:16:56.508Z,12.3
2018-09-01T03:17:57.655Z,12.3
2018-09-01T03:18:58.801Z,12.2
2018-09-01T03:19:59.980Z,12.2
2018-09-01T03:21:02.959Z,12.2
2018-09-01T03:22:04.124Z,12.1
2018-09-01T03:23:05.316Z,12.1
2018-09-01T03:24:06.441Z,12.2
2018-09-01T03:25:07.640Z,12.2
2018-09-01T03:26:08.792Z,12.2
2018-09-01T03:27:09.927Z,12.2
2018-09-01T03:28:11.070Z,12.3
2018-09-01T03:29:12.215Z,12.3
2018-09-01T03:30:13.385Z,12.2
2018-09-01T03:31:14.639Z,12.1
2018-09-01T03:32:16.010Z,12.3
2018-09-01T03:33:17.150Z,12.2
2018-09-01T03:34:18.311Z,12.1
2018-09-01T03:35:19.477Z,12.3
2018-09-01T03:36:20.616Z,12.3
2018-09-01T03:37:21.771Z,12.3
2018-09-01T03:38:22.918Z,12.3
2018-09-01T03:39:24.021Z,12.2
2018-09-01T03:40:25.241Z,12.2
2018-09-01T03:41:26.373Z,12.2
2018-09-01T03:42:27.886Z,12.2
2018-09-01T03:43:29.015Z,12.1
2018-09-01T03:44:30.140Z,12.1
2018-09-01T03:45:31.248Z,12.2
2018-09-01T03:46:32.399Z,12
2018-09-01T03:47:33.793Z,12
2018-09-01T03:48:34.911Z,12.1
2018-09-01T03:49:36.027Z,12
2018-09-01T03:50:37.143Z,12.1
2018-09-01T03:51:38.679Z,12.1
2018-09-01T03:52:39.836Z,12.1
2018-09-01T03:53:40.951Z,12.1
2018-09-01T03:54:42.105Z,12.1
2018-09-01T03:55:43.232Z,12.1
2018-09-01T03:56:44.408Z,12
2018-09-01T03:57:55.020Z,11.8
2018-09-01T03:58:56.168Z,11.9
2018-09-01T03:59:57.296Z,12
2018-09-01T04:00:58.425Z,12.1
2018-09-01T04:01:59.792Z,12.1
2018-09-01T04:03:04.640Z,12.1
2018-09-01T04:04:05.757Z,12
2018-09-01T04:05:06.870Z,12
2018-09-01T04:06:08.054Z,12.1
2018-09-01T04:07:09.228Z,12
2018-09-01T04:08:13.427Z,12
2018-09-01T04:09:14.603Z,12
2018-09-01T04:10:18.151Z,12
2018-09-01T04:11:19.295Z,12
2018-09-01T04:12:20.412Z,12
2018-09-01T04:13:21.576Z,11.9
2018-09-01T04:14:22.689Z,11.9
2018-09-01T04:15:23.926Z,11.8
2018-09-01T04:16:25.099Z,11.8
2018-09-01T04:17:26.209Z,11.8
2018-09-01T04:18:27.372Z,11.9
2018-09-01T04:19:28.515Z,11.8
2018-09-01T04:20:29.663Z,11.9
2018-09-01T04:21:30.759Z,11.9
2018-09-01T04:22:31.919Z,11.8
2018-09-01T04:23:33.107Z,11.8
2018-09-01T04:24:34.237Z,11.8
2018-09-01T04:25:35.363Z,11.9
2018-09-01T04:26:36.496Z,11.8
2018-09-01T04:27:37.628Z,11.9
2018-09-01T04:28:38.824Z,11.9
2018-09-01T04:29:39.981Z,11.9
2018-09-01T04:30:41.177Z,12
2018-09-01T04:31:42.288Z,11.9
2018-09-01T04:32:43.398Z,11.7
2018-09-01T04:33:44.576Z,11.8
2018-09-01T04:34:48.175Z,11.8
2018-09-01T04:35:49.311Z,11.8
2018-09-01T04:36:50.523Z,11.9
2018-09-01T04:37:51.673Z,11.8
2018-09-01T04:38:52.861Z,11.8
2018-09-01T04:39:53.995Z,11.8
2018-09-01T04:40:55.158Z,11.8
2018-09-01T04:41:56.285Z,11.7
2018-09-01T04:42:57.425Z,11.8
2018-09-01T04:43:58.691Z,11.8
2018-09-01T04:45:00.563Z,11.6
2018-09-01T04:46:04.323Z,11.7
2018-09-01T04:47:05.651Z,11.7
2018-09-01T04:48:07.115Z,11.8
2018-09-01T04:49:08.255Z,11.8
2018-09-01T04:50:09.403Z,11.8
2018-09-01T04:51:10.540Z,11.8
2018-09-01T04:52:11.666Z,11.9
2018-09-01T04:53:12.818Z,11.9
2018-09-01T04:54:14.020Z,11.7
2018-09-01T04:55:15.163Z,11.8
2018-09-01T04:56:16.284Z,11.9
2018-09-01T04:57:17.432Z,11.9
2018-09-01T04:58:19.166Z,11.9
2018-09-01T04:59:20.549Z,12.1
2018-09-01T05:00:21.864Z,12.1
2018-09-01T05:01:23.088Z,12.1
2018-09-01T05:02:24.364Z,12
2018-09-01T05:03:30.234Z,12
2018-09-01T05:04:31.362Z,12.1
2018-09-01T05:05:32.471Z,12.1
2018-09-01T05:06:33.593Z,12.2
2018-09-01T05:07:34.750Z,12.3
2018-09-01T05:08:35.890Z,12.3
2018-09-01T05:09:37.025Z,12.5
2018-09-01T05:10:39.294Z,12.6
2018-09-01T05:11:40.412Z,12.8
2018-09-01T05:12:41.537Z,12.8
2018-09-01T05:13:42.679Z,12.9
2018-09-01T05:14:43.842Z,13
2018-09-01T05:15:44.998Z,13.2
2018-09-01T05:16:46.172Z,13.5
2018-09-01T05:17:47.284Z,13.7
2018-09-01T05:18:48.878Z,13.6
2018-09-01T05:19:50.007Z,13.6
2018-09-01T05:20:51.153Z,13.8
2018-09-01T05:21:52.285Z,13.8
2018-09-01T05:22:53.417Z,13.8
2018-09-01T05:23:54.541Z,13.8
2018-09-01T05:24:55.686Z,13.9
2018-09-01T05:25:56.799Z,14
2018-09-01T05:26:57.908Z,13.9
2018-09-01T05:27:59.011Z,14
2018-09-01T05:29:00.151Z,14.3
2018-09-01T05:30:01.537Z,14.5
2018-09-01T05:31:02.772Z,14.6
2018-09-01T05:32:03.898Z,14.6
2018-09-01T05:33:05.067Z,14.7
2018-09-01T05:34:06.215Z,14.8
2018-09-01T05:35:07.381Z,14.9
2018-09-01T05:36:08.555Z,14.9
2018-09-01T05:37:09.689Z,15.1
2018-09-01T05:38:10.863Z,15.1
2018-09-01T05:39:12.039Z,15.3
2018-09-01T05:40:13.199Z,15.4
2018-09-01T05:41:14.336Z,15.6
2018-09-01T05:42:15.529Z,15.9
2018-09-01T05:43:16.658Z,16
2018-09-01T05:44:18.055Z,16.1
2018-09-01T05:45:19.289Z,16.1
2018-09-01T05:46:20.421Z,16.1
2018-09-01T05:47:21.548Z,16.3
2018-09-01T05:48:22.665Z,16.2
2018-09-01T05:49:23.836Z,16.2
2018-09-01T05:50:27.799Z,16.2
2018-09-01T05:51:31.785Z,16.3
2018-09-01T05:52:33.010Z,16.4
2018-09-01T05:53:34.209Z,16.6
2018-09-01T05:54:35.387Z,16.8
2018-09-01T05:55:36.547Z,16.9
2018-09-01T05:56:37.714Z,17
2018-09-01T05:57:38.844Z,17.4
2018-09-01T05:58:40.013Z,17.6
2018-09-01T05:59:41.179Z,17.6
2018-09-01T06:00:42.702Z,17.6
2018-09-01T06:01:43.752Z,17.7
2018-09-01T06:02:44.859Z,17.7
2018-09-01T06:03:46.012Z,18
2018-09-01T06:04:47.155Z,18.1
2018-09-01T06:05:48.309Z,18.3
2018-09-01T06:06:49.469Z,18.4
2018-09-01T06:07:50.584Z,18.7
2018-09-01T06:08:51.724Z,18.7
2018-09-01T06:09:52.830Z,18.7
2018-09-01T06:10:53.960Z,18.9
2018-09-01T06:11:55.137Z,18.8
2018-09-01T06:12:56.291Z,18.8
2018-09-01T06:13:57.435Z,19.2
2018-09-01T06:14:58.612Z,19.1
2018-09-01T06:15:59.800Z,19.1
2018-09-01T06:17:00.961Z,19.1
2018-09-01T06:18:02.222Z,19.5
2018-09-01T06:19:03.315Z,19.9
2018-09-01T06:20:07.399Z,19.7
2018-09-01T06:21:08.579Z,20
2018-09-01T06:22:09.724Z,20.1
2018-09-01T06:23:10.864Z,20.3
2018-09-01T06:24:12.008Z,20.4
2018-09-01T06:25:13.121Z,20.3
2018-09-01T06:26:14.263Z,20.8
2018-09-01T06:27:15.432Z,21
2018-09-01T06:28:16.714Z,20.7
2018-09-01T06:29:17.880Z,20.4
2018-09-01T06:30:19.047Z,20.7
2018-09-01T06:31:20.170Z,20.6
2018-09-01T06:32:21.329Z,20.5
2018-09-01T06:33:22.578Z,20.9
2018-09-01T06:34:28.479Z,20.4
2018-09-01T06:35:29.649Z,19.8
2018-09-01T06:36:30.853Z,19.5
2018-09-01T06:37:31.964Z,19.2
2018-09-01T06:38:33.085Z,19.6
2018-09-01T06:39:34.256Z,19.9
2018-09-01T06:40:38.207Z,20.2
2018-09-01T06:41:39.845Z,20.3
2018-09-01T06:42:40.968Z,21.3
2018-09-01T06:43:42.099Z,21
2018-09-01T06:44:43.251Z,22
2018-09-01T06:45:44.392Z,22.8
2018-09-01T06:46:46.284Z,22.8
2018-09-01T06:47:47.412Z,22.6
2018-09-01T06:48:51.463Z,22
2018-09-01T06:49:53.987Z,22.9
2018-09-01T06:50:55.103Z,22.5
2018-09-01T06:51:56.343Z,22.7
2018-09-01T06:52:57.486Z,21.7
2018-09-01T06:53:58.613Z,22
2018-09-01T06:54:59.766Z,21.8
2018-09-01T06:56:00.922Z,22.4
2018-09-01T06:57:02.096Z,22.8
2018-09-01T06:58:03.235Z,23.2
2018-09-01T06:59:04.367Z,23.1
2018-09-01T07:00:05.576Z,22.9
2018-09-01T07:01:06.731Z,23.4
2018-09-01T07:02:08.586Z,23.7
2018-09-01T07:03:13.506Z,24.3
2018-09-01T07:04:14.648Z,24
2018-09-01T07:05:23.235Z,24.2
2018-09-01T07:06:24.359Z,24.8
2018-09-01T07:07:28.522Z,24.7
2018-09-01T07:08:29.640Z,23.9
2018-09-01T07:09:33.213Z,24.1
2018-09-01T07:10:37.305Z,24.2
2018-09-01T07:11:40.924Z,24.1
2018-09-01T07:12:44.034Z,25.1
2018-09-01T07:13:45.152Z,25
2018-09-01T07:14:48.477Z,24
2018-09-01T07:15:52.088Z,24.3
2018-09-01T07:16:53.222Z,25.5
2018-09-01T07:17:54.392Z,25.7
2018-09-01T07:18:55.566Z,25.3
2018-09-01T07:19:56.692Z,24.7
2018-09-01T07:20:57.817Z,24.7
2018-09-01T07:22:03.315Z,25.2
2018-09-01T07:23:04.537Z,25.6
2018-09-01T07:24:05.699Z,24.8
2018-09-01T07:25:06.800Z,24.9
2018-09-01T07:26:07.971Z,25.4
2018-09-01T07:27:09.100Z,25.8
2018-09-01T07:28:12.731Z,25.3
2018-09-01T07:29:20.236Z,25
2018-09-01T07:30:23.603Z,25.6
2018-09-01T07:31:25.052Z,25.9
2018-09-01T07:32:26.295Z,25.4
2018-09-01T07:33:27.516Z,25.7
2018-09-01T07:34:28.679Z,26.4
2018-09-01T07:35:29.807Z,25.1
2018-09-01T07:36:30.918Z,25.7
2018-09-01T07:37:32.032Z,25.6
2018-09-01T07:38:33.186Z,25.4
2018-09-01T07:39:36.808Z,25.7
2018-09-01T07:40:39.299Z,26
2018-09-01T07:41:40.532Z,25.6
2018-09-01T07:42:41.841Z,26.9
2018-09-01T07:43:44.979Z,26.8
2018-09-01T07:44:46.226Z,26.2
2018-09-01T07:45:50.425Z,27
2018-09-01T07:46:54.348Z,25.7
2018-09-01T07:47:58.299Z,25.9
2018-09-01T07:49:04.443Z,25.9
2018-09-01T07:50:13.754Z,26.6
2018-09-01T07:51:19.125Z,26.3
2018-09-01T07:52:25.311Z,25.6
2018-09-01T07:53:27.737Z,26.9
2018-09-01T07:54:38.901Z,26.3
2018-09-01T07:55:39.970Z,26
2018-09-01T07:56:41.362Z,26
2018-09-01T07:57:42.255Z,26.6
2018-09-01T07:58:43.415Z,26.5
2018-09-01T07:59:47.024Z,26
2018-09-01T08:00:48.167Z,26.3
2018-09-01T08:01:52.007Z,27.5
2018-09-01T08:02:53.481Z,27.4
2018-09-01T08:03:55.511Z,27.2
2018-09-01T08:04:56.728Z,26.2
2018-09-01T08:06:00.505Z,27
2018-09-01T08:07:01.651Z,26.1
2018-09-01T08:08:02.784Z,25.5
2018-09-01T08:09:04.041Z,25.9
2018-09-01T08:10:05.258Z,25.9
2018-09-01T08:11:06.482Z,26.2
2018-09-01T08:12:07.640Z,26.1
2018-09-01T08:13:09.080Z,26
2018-09-01T08:14:10.270Z,26.6
2018-09-01T08:15:11.364Z,26.1
2018-09-01T08:16:12.571Z,26.4
2018-09-01T08:17:13.764Z,26.5
2018-09-01T08:18:16.081Z,26.2
2018-09-01T08:19:17.305Z,27
2018-09-01T08:20:21.503Z,26.5
2018-09-01T08:21:28.475Z,25.7
2018-09-01T08:22:31.900Z,25.9
2018-09-01T08:23:33.015Z,27.5
2018-09-01T08:24:35.281Z,26.6
2018-09-01T08:25:38.720Z,27.3
2018-09-01T08:26:39.874Z,27.5
2018-09-01T08:27:41.155Z,27.1
2018-09-01T08:28:42.331Z,26.8
2018-09-01T08:29:43.456Z,27.2
2018-09-01T08:30:44.639Z,26.6
2018-09-01T08:31:45.813Z,26.4
2018-09-01T08:32:52.339Z,26.3
2018-09-01T08:33:53.517Z,26.3
2018-09-01T08:34:54.631Z,26.2
2018-09-01T08:36:04.643Z,26.5
2018-09-01T08:37:05.916Z,26.8
2018-09-01T08:38:07.146Z,26.7
2018-09-01T08:39:08.294Z,26.1
2018-09-01T08:40:09.533Z,26.9
2018-09-01T08:41:10.651Z,27.6
2018-09-01T08:42:11.826Z,26.4
2018-09-01T08:43:12.963Z,26.1
2018-09-01T08:44:14.110Z,25.7
2018-09-01T08:45:15.300Z,26.2
2018-09-01T08:46:17.768Z,26.2
2018-09-01T08:47:28.361Z,27.1
2018-09-01T08:48:29.616Z,26.7
2018-09-01T08:49:30.850Z,27.4
2018-09-01T08:50:34.957Z,27.6
2018-09-01T08:51:39.355Z,27.2
2018-09-01T08:52:43.101Z,26.7
2018-09-01T08:53:46.414Z,26.4
2018-09-01T08:54:49.708Z,27.3
2018-09-01T08:55:51.165Z,26.5
2018-09-01T08:56:52.673Z,26.7
2018-09-01T08:57:54.033Z,26.2
2018-09-01T08:58:55.678Z,26.5
2018-09-01T08:59:57.045Z,26.6
2018-09-01T09:00:58.412Z,26.7
2018-09-01T09:01:59.767Z,26.8
2018-09-01T09:03:01.007Z,27
2018-09-01T09:04:02.481Z,27.4
2018-09-01T09:05:06.167Z,26.7
2018-09-01T09:06:09.182Z,26.8
2018-09-01T09:07:10.578Z,26.4
2018-09-01T09:08:14.702Z,26.2
2018-09-01T09:09:32.762Z,27.2
2018-09-01T09:10:34.578Z,26.8
2018-09-01T09:11:44.365Z,26.9
2018-09-01T09:12:46.335Z,26.7
2018-09-01T09:13:47.651Z,27.3
2018-09-01T09:14:53.437Z,26.6
2018-09-01T09:15:54.686Z,26.9
2018-09-01T09:16:58.742Z,26.7
2018-09-01T09:18:07.411Z,26.5
2018-09-01T09:19:14.304Z,26.8
2018-09-01T09:20:17.786Z,26.6
2018-09-01T09:21:21.213Z,26.3
2018-09-01T09:22:22.361Z,26.2
2018-09-01T09:23:26.571Z,26.3
2018-09-01T09:24:27.733Z,26.6
2018-09-01T09:25:32.594Z,27.1
2018-09-01T09:26:33.833Z,26.8
2018-09-01T09:27:35.244Z,26.8
2018-09-01T09:28:36.523Z,26.8
2018-09-01T09:29:37.626Z,26.8
2018-09-01T09:30:38.813Z,26.7
2018-09-01T09:31:39.995Z,26.6
2018-09-01T09:32:41.226Z,26.3
2018-09-01T09:33:42.382Z,26.2
2018-09-01T09:34:43.517Z,26.4
2018-09-01T09:35:44.631Z,26.5
2018-09-01T09:36:45.838Z,26.5
2018-09-01T09:37:47.127Z,26
2018-09-01T09:38:48.823Z,25.9
2018-09-01T09:39:52.760Z,25.2
2018-09-01T09:40:54.070Z,25.5
2018-09-01T09:41:57.818Z,25.8
2018-09-01T09:43:00.531Z,25.7
2018-09-01T09:44:01.803Z,26.2
2018-09-01T09:45:08.264Z,26.3
2018-09-01T09:46:15.260Z,26.2
2018-09-01T09:47:18.809Z,26.2
2018-09-01T09:48:19.992Z,25.9
2018-09-01T09:49:21.285Z,26
2018-09-01T09:50:22.500Z,26
2018-09-01T09:51:25.811Z,26
2018-09-01T09:52:29.669Z,26.1
2018-09-01T09:53:33.238Z,26
2018-09-01T09:54:35.079Z,26.1
2018-09-01T09:55:36.223Z,25.9
2018-09-01T09:56:37.343Z,25.9
2018-09-01T09:57:38.490Z,25.9
2018-09-01T09:58:43.170Z,25.8
2018-09-01T09:59:47.590Z,25.6
2018-09-01T10:01:05.025Z,25.9
2018-09-01T10:02:06.268Z,25.7
2018-09-01T10:03:07.485Z,26
2018-09-01T10:04:08.605Z,25.5
2018-09-01T10:05:09.811Z,25.4
2018-09-01T10:06:13.154Z,25.6
2018-09-01T10:07:16.099Z,25.7
2018-09-01T10:08:17.237Z,25.6
2018-09-01T10:09:22.211Z,25.6
2018-09-01T10:10:24.006Z,25.7
2018-09-01T10:11:25.229Z,25.6
2018-09-01T10:12:27.183Z,25.5
2018-09-01T10:13:37.964Z,25.4
2018-09-01T10:14:39.097Z,25.4
2018-09-01T10:15:40.361Z,25.6
2018-09-01T10:16:46.290Z,25.7
2018-09-01T10:17:50.260Z,25.7
2018-09-01T10:18:51.395Z,25.6
2018-09-01T10:19:52.572Z,25.5
2018-09-01T10:20:53.743Z,25.6
2018-09-01T10:21:57.375Z,25.5
2018-09-01T10:22:58.520Z,25.4
2018-09-01T10:23:59.677Z,25.3
2018-09-01T10:25:00.829Z,25.3
2018-09-01T10:26:02.042Z,25.4
2018-09-01T10:27:03.195Z,25.4
2018-09-01T10:28:07.680Z,25.4
2018-09-01T10:29:11.087Z,25.4
2018-09-01T10:30:13.645Z,25.1
2018-09-01T10:31:18.918Z,25
2018-09-01T10:32:29.463Z,25.3
2018-09-01T10:33:30.676Z,25.3
2018-09-01T10:34:31.822Z,25.4
2018-09-01T10:35:33.204Z,25.3
2018-09-01T10:36:35.439Z,25.3
2018-09-01T10:37:36.708Z,25.2
2018-09-01T10:38:42.014Z,25.2
2018-09-01T10:39:54.739Z,25
2018-09-01T10:40:55.944Z,24.8
2018-09-01T10:41:59.582Z,24.8
2018-09-01T10:43:05.466Z,24.8
2018-09-01T10:44:08.245Z,24.6
2018-09-01T10:45:12.183Z,24.7
2018-09-01T10:46:13.479Z,24.8
2018-09-01T10:47:14.679Z,24.7
2018-09-01T10:48:18.035Z,24.9
2018-09-01T10:49:19.251Z,24.8
2018-09-01T10:50:20.502Z,24.9
2018-09-01T10:51:21.649Z,24.9
2018-09-01T10:52:24.967Z,24.8
2018-09-01T10:53:39.021Z,24.9
2018-09-01T10:54:40.163Z,24.8
2018-09-01T10:55:42.383Z,24.9
2018-09-01T10:56:43.553Z,24.6
2018-09-01T10:57:44.750Z,24.5
2018-09-01T10:58:45.953Z,24.3
2018-09-01T10:59:47.135Z,24
2018-09-01T11:00:51.403Z,24
2018-09-01T11:04:24.428Z,24.1
2018-09-01T11:05:29.935Z,23.8
2018-09-01T11:06:31.093Z,23.5
2018-09-01T11:07:34.256Z,23.5
2018-09-01T11:08:54.206Z,23.6
2018-09-01T11:10:00.545Z,23.5
2018-09-01T11:11:05.914Z,23.8
2018-09-01T11:12:07.088Z,24
2018-09-01T11:13:10.938Z,24.1
2018-09-01T11:14:12.147Z,24.3
2018-09-01T11:15:14.831Z,24.4
2018-09-01T11:16:15.976Z,24.3
2018-09-01T11:17:17.834Z,24.3
2018-09-01T11:18:21.888Z,24.4
2018-09-01T11:19:23.059Z,24.3
2018-09-01T11:20:26.843Z,23.9
2018-09-01T11:21:30.749Z,24
2018-09-01T11:22:35.595Z,23.6
2018-09-01T11:23:36.717Z,23.6
2018-09-01T11:24:40.807Z,23.5
2018-09-01T11:25:44.447Z,23.2
2018-09-01T11:26:45.555Z,23.3
2018-09-01T11:27:46.843Z,23.3
2018-09-01T11:28:50.290Z,23.2
2018-09-01T11:29:51.447Z,23.3
2018-09-01T11:30:52.607Z,23.6
2018-09-01T11:31:53.739Z,23.8
2018-09-01T11:32:56.099Z,23.9
2018-09-01T11:34:04.579Z,23.4
2018-09-01T11:35:05.792Z,23
2018-09-01T11:36:07.050Z,22.8
2018-09-01T11:37:08.184Z,23.1
2018-09-01T11:38:09.307Z,23.2
2018-09-01T11:39:11.704Z,23.3
2018-09-01T11:41:30.885Z,23.7
2018-09-01T11:42:34.869Z,23.8
2018-09-01T11:43:35.902Z,23.8
2018-09-01T11:44:39.608Z,23.8
2018-09-01T11:45:40.768Z,23.8
2018-09-01T11:46:44.671Z,23.9
2018-09-01T11:47:45.833Z,23.9
2018-09-01T11:48:57.821Z,23.6
2018-09-01T11:49:58.965Z,23.2
2018-09-01T11:51:00.421Z,23
2018-09-01T11:52:01.682Z,22.7
2018-09-01T11:53:02.804Z,22.7
2018-09-01T11:54:03.937Z,23.1
2018-09-01T11:55:05.076Z,23.2
2018-09-01T11:56:08.506Z,23.1
2018-09-01T11:57:09.622Z,23.4
2018-09-01T11:58:10.782Z,23.5
2018-09-01T11:59:11.937Z,23.4
2018-09-01T12:00:13.124Z,23.3
2018-09-01T12:02:43.871Z,23.4
2018-09-01T12:03:45.043Z,23.5
2018-09-01T12:04:46.294Z,23.7
2018-09-01T12:05:47.481Z,23.5
2018-09-01T12:06:51.403Z,23.5
2018-09-01T12:07:56.767Z,23.4
2018-09-01T12:08:58.059Z,23.4
2018-09-01T12:09:59.218Z,23.2
2018-09-01T12:11:00.390Z,23.2
2018-09-01T12:12:03.235Z,23.1
2018-09-01T12:13:04.396Z,22.9
2018-09-01T12:14:07.262Z,22.9
2018-09-01T12:15:08.443Z,22.6
2018-09-01T12:16:09.619Z,22.1
2018-09-01T12:17:13.819Z,21.8
2018-09-01T12:18:15.016Z,22.1
2018-09-01T12:19:16.184Z,22.3
2018-09-01T12:20:20.470Z,22.1
2018-09-01T12:21:21.604Z,22.4
2018-09-01T12:22:22.946Z,22.1
2018-09-01T12:23:23.939Z,22
2018-09-01T12:24:25.088Z,22
2018-09-01T12:25:26.218Z,22.2
2018-09-01T12:26:27.440Z,22.4
2018-09-01T12:27:28.632Z,22.2
2018-09-01T12:28:32.133Z,22.3
2018-09-01T12:29:33.344Z,22.3
2018-09-01T12:30:43.503Z,22.5
2018-09-01T12:31:44.682Z,22.6
2018-09-01T12:32:47.097Z,22.8
2018-09-01T12:33:48.323Z,22.6
2018-09-01T12:34:49.653Z,22.9
2018-09-01T12:35:50.816Z,22.9
2018-09-01T12:36:52.005Z,22.9
2018-09-01T12:37:54.061Z,22.9
2018-09-01T12:38:55.223Z,22.7
2018-09-01T12:39:56.456Z,22.2
2018-09-01T12:40:57.686Z,22.3
2018-09-01T12:41:58.909Z,22.3
2018-09-01T12:43:00.108Z,22.2
2018-09-01T12:44:04.021Z,21.9
2018-09-01T12:45:11.369Z,21.8
2018-09-01T12:46:12.552Z,22.3
2018-09-01T12:47:13.795Z,22.4
2018-09-01T12:48:15.151Z,22.5
2018-09-01T12:49:16.456Z,22.6
2018-09-01T12:50:17.621Z,22.8
2018-09-01T12:51:18.789Z,22.8
2018-09-01T12:52:21.030Z,22.7
2018-09-01T12:53:22.250Z,22.7
2018-09-01T12:54:29.409Z,22.3
2018-09-01T12:55:30.576Z,22.3
2018-09-01T12:56:34.123Z,22.2
2018-09-01T12:57:42.959Z,22.3
2018-09-01T12:58:46.597Z,22.5
2018-09-01T12:59:47.780Z,22.7
2018-09-01T13:00:53.671Z,22.8
2018-09-01T13:01:57.804Z,22.7
2018-09-01T13:03:02.020Z,22.7
2018-09-01T13:04:03.208Z,22.7
2018-09-01T13:05:04.387Z,22.8
2018-09-01T13:06:07.174Z,22.8
2018-09-01T13:07:08.324Z,23
2018-09-01T13:08:12.255Z,23.1
2018-09-01T13:09:13.464Z,23.1
2018-09-01T13:10:14.663Z,23
2018-09-01T13:11:15.921Z,23
2018-09-01T13:12:17.145Z,22.7
2018-09-01T13:13:18.327Z,22.8
2018-09-01T13:14:22.248Z,22.4
2018-09-01T13:15:23.410Z,22.5
2018-09-01T13:16:27.533Z,22.5
2018-09-01T13:17:28.771Z,22.3
2018-09-01T13:18:29.913Z,22.2
2018-09-01T13:19:31.156Z,22.4
2018-09-01T13:20:32.293Z,22.5
2018-09-01T13:21:36.323Z,22.3
2018-09-01T13:22:37.519Z,22.5
2018-09-01T13:23:41.040Z,22.1
2018-09-01T13:24:42.191Z,22.4
2018-09-01T13:25:45.025Z,22.2
2018-09-01T13:26:46.167Z,22.2
2018-09-01T13:27:47.316Z,22.3
2018-09-01T13:28:48.448Z,22.5
2018-09-01T13:29:49.605Z,22.8
2018-09-01T13:30:50.736Z,22.8
2018-09-01T13:31:51.879Z,22.9
2018-09-01T13:32:53.014Z,22.9
2018-09-01T13:33:54.138Z,22.9
2018-09-01T13:34:58.048Z,22.9
2018-09-01T13:35:59.208Z,22.8
2018-09-01T13:37:00.379Z,22.8
2018-09-01T13:38:04.550Z,22.9
2018-09-01T13:39:05.949Z,22.8
2018-09-01T13:40:07.265Z,22.8
2018-09-01T13:41:08.424Z,22.7
2018-09-01T13:42:09.593Z,22.4
2018-09-01T13:43:10.748Z,22.3
2018-09-01T13:44:14.086Z,22.5
2018-09-01T13:45:17.699Z,22.3
2018-09-01T13:46:18.880Z,22.1
2018-09-01T13:47:20.075Z,21.8
2018-09-01T13:48:21.257Z,21.9
2018-09-01T13:49:22.446Z,22.2
2018-09-01T13:50:23.717Z,22.3
2018-09-01T13:51:27.348Z,22.4
2018-09-01T13:52:31.524Z,22.5
2018-09-01T13:53:32.660Z,22.7
2018-09-01T13:54:36.286Z,22.9
2018-09-01T13:55:40.685Z,23